Time;durP1;ratioP1;P1;durP2;ratioP2;P2;SDS_P1;SDS_P2;PMS_P1;PMS_P2;Temp;Humidity;BMP_temperature;BMP_pressure;BME280_temperature;BME280_humidity;BME280_pressure;Samples;Min_cycle;Max_cycle;Signal;HPM_P1;HPM_P2
2022/05/28 00:02:02;;;;;;;2.42;1.17;;;9.30;99.90;;;;;;5043476;28;20402;-78
2022/05/28 00:04:27;;;;;;;2.60;1.17;;;9.30;99.90;;;;;;5043369;28;20057;-75
2022/05/28 00:06:53;;;;;;;5.57;1.08;;;9.30;99.90;;;;;;5025337;28;20026;-75
2022/05/28 00:09:19;;;;;;;4.05;1.10;;;9.20;99.90;;;;;;5025477;28;20021;-76
2022/05/28 00:11:45;;;;;;;8.77;1.75;;;9.20;99.90;;;;;;5042804;28;20121;-79
2022/05/28 00:14:11;;;;;;;3.30;1.38;;;9.20;99.90;;;;;;5042733;28;20057;-77
2022/05/28 00:16:37;;;;;;;3.50;0.85;;;9.20;99.90;;;;;;5043116;28;20040;-73
2022/05/28 00:19:07;;;;;;;5.18;1.15;;;9.20;99.90;;;;;;5024857;28;20029;-75
2022/05/28 00:21:33;;;;;;;7.53;1.50;;;9.20;99.90;;;;;;5042832;28;20032;-76
2022/05/28 00:23:59;;;;;;;3.22;0.95;;;9.20;99.90;;;;;;5024892;28;20034;-73
2022/05/28 00:26:32;;;;;;;9.07;0.82;;;9.20;99.90;;;;;;5042878;28;20053;-75
2022/05/28 00:28:57;;;;;;;6.40;1.45;;;9.20;99.90;;;;;;5025021;28;20059;-76
2022/05/28 00:31:23;;;;;;;4.70;0.98;;;9.20;99.90;;;;;;5042689;28;20084;-78
2022/05/28 00:33:49;;;;;;;8.15;1.05;;;9.10;99.90;;;;;;5042815;28;20104;-73
2022/05/28 00:36:15;;;;;;;4.15;1.40;;;9.10;99.90;;;;;;5042891;28;20064;-78
2022/05/28 00:38:44;;;;;;;2.80;0.82;;;9.10;99.90;;;;;;5042511;28;20057;-72
2022/05/28 00:41:11;;;;;;;6.35;1.25;;;9.10;99.90;;;;;;5042311;28;20025;-75
2022/05/28 00:43:39;;;;;;;1.77;0.85;;;9.10;99.90;;;;;;5042796;28;20032;-77
2022/05/28 00:46:13;;;;;;;6.65;1.02;;;9.10;99.90;;;;;;5024761;28;20378;-76
2022/05/28 00:48:45;;;;;;;14.50;1.27;;;9.10;99.90;;;;;;5024895;28;20032;-74
2022/05/28 00:51:21;;;;;;;4.45;1.58;;;9.10;99.90;;;;;;5042137;28;20060;-74
2022/05/28 00:53:46;;;;;;;7.55;2.05;;;9.10;99.90;;;;;;5042273;28;20499;-74
2022/05/28 00:56:12;;;;;;;4.20;1.20;;;9.00;99.90;;;;;;5041984;28;20085;-77
2022/05/28 00:58:38;;;;;;;2.95;1.10;;;9.00;99.90;;;;;;5024990;28;20021;-74
2022/05/28 01:01:06;;;;;;;7.50;1.40;;;9.00;99.90;;;;;;5042575;28;20068;-74
2022/05/28 01:03:53;;;;;;;3.83;1.25;;;9.00;99.90;;;;;;5042616;28;20032;-73
2022/05/28 01:06:33;;;;;;;5.22;1.25;;;9.00;99.90;;;;;;5042452;28;20033;-72
2022/05/28 01:09:27;;;;;;;6.22;1.67;;;9.00;99.90;;;;;;5042328;28;20021;-73
2022/05/28 01:12:14;;;;;;;6.18;1.77;;;8.90;99.90;;;;;;5018427;28;20049;-75
2022/05/28 01:14:57;;;;;;;3.40;1.20;;;8.90;99.90;;;;;;5024353;28;20041;-75
2022/05/28 01:17:36;;;;;;;2.97;1.42;;;8.90;99.90;;;;;;5042272;28;20022;-75
2022/05/28 01:20:18;;;;;;;5.28;1.63;;;9.00;99.90;;;;;;5042197;28;20029;-74
2022/05/28 01:23:04;;;;;;;3.50;1.45;;;8.90;99.90;;;;;;5023780;28;20415;-75
2022/05/28 01:26:09;;;;;;;5.55;1.33;;;8.90;99.90;;;;;;5042105;28;20049;-74
2022/05/28 01:28:42;;;;;;;7.30;1.15;;;8.90;99.90;;;;;;5022918;28;20041;-74
2022/05/28 01:31:09;;;;;;;4.68;1.33;;;8.90;99.90;;;;;;5041822;28;20022;-77
2022/05/28 01:33:37;;;;;;;5.72;1.48;;;8.90;99.90;;;;;;5042487;28;20132;-76
2022/05/28 01:36:08;;;;;;;5.40;1.00;;;8.90;99.90;;;;;;5042158;28;20025;-74
2022/05/28 01:38:36;;;;;;;7.00;1.10;;;8.90;99.90;;;;;;5041723;28;20166;-72
2022/05/28 01:41:06;;;;;;;12.52;1.50;;;8.90;99.90;;;;;;5023539;28;20029;-74
2022/05/28 01:43:37;;;;;;;2.17;1.27;;;9.00;99.90;;;;;;5024085;28;20377;-74
2022/05/28 01:46:06;;;;;;;11.00;1.73;;;9.00;99.90;;;;;;5041577;28;20044;-74
2022/05/28 01:48:32;;;;;;;11.80;1.83;;;9.00;99.90;;;;;;5041615;28;20101;-75
2022/05/28 01:51:01;;;;;;;7.75;1.10;;;9.00;99.90;;;;;;5023988;28;20022;-73
2022/05/28 01:56:15;;;;;;;3.88;1.25;;;9.10;99.90;;;;;;5041324;28;20044;-75
2022/05/28 01:58:40;;;;;;;10.55;1.48;;;9.10;99.90;;;;;;5041884;28;20052;-73
2022/05/28 02:01:08;;;;;;;12.75;1.52;;;9.00;99.90;;;;;;5041391;28;20021;-73
2022/05/28 02:03:38;;;;;;;3.05;1.33;;;9.00;99.90;;;;;;5044503;28;20044;-75
2022/05/28 02:06:04;;;;;;;4.32;1.42;;;9.00;99.90;;;;;;5045415;28;20028;-74
2022/05/28 02:08:35;;;;;;;3.60;1.40;;;9.00;99.90;;;;;;5045789;28;20021;-72
2022/05/28 02:11:12;;;;;;;22.27;1.35;;;9.00;99.90;;;;;;5045393;28;20021;-75
2022/05/28 02:14:24;;;;;;;4.07;1.08;;;9.10;99.90;;;;;;5044902;28;20065;-73
2022/05/28 02:17:05;;;;;;;7.60;2.08;;;9.00;99.90;;;;;;5045311;28;20025;-74
2022/05/28 02:19:37;;;;;;;8.85;1.83;;;9.00;99.90;;;;;;5027752;28;20378;-77
2022/05/28 02:22:12;;;;;;;2.85;1.20;;;9.00;99.90;;;;;;5045244;28;20088;-75
2022/05/28 02:24:44;;;;;;;7.22;2.00;;;9.00;99.90;;;;;;5027433;28;20021;-73
2022/05/28 02:27:14;;;;;;;2.47;1.33;;;9.00;99.90;;;;;;5044917;28;20025;-76
2022/05/28 02:29:40;;;;;;;6.15;1.48;;;9.00;99.90;;;;;;5026943;28;20393;-76
2022/05/28 02:32:21;;;;;;;7.95;1.45;;;9.00;99.90;;;;;;5027603;28;20027;-77
2022/05/28 02:34:50;;;;;;;7.32;1.75;;;9.00;99.90;;;;;;5044656;28;20034;-74
2022/05/28 02:37:21;;;;;;;8.63;1.70;;;8.90;99.90;;;;;;5026740;28;20017;-73
2022/05/28 02:39:47;;;;;;;2.15;1.02;;;9.00;99.90;;;;;;5045218;28;20030;-76
2022/05/28 02:42:14;;;;;;;7.53;1.60;;;9.00;99.90;;;;;;5044616;28;20026;-74
2022/05/28 02:44:40;;;;;;;5.38;1.33;;;8.90;99.90;;;;;;5044649;28;20047;-73
2022/05/28 02:47:06;;;;;;;5.05;1.30;;;8.90;99.90;;;;;;5045032;28;20044;-76
2022/05/28 02:49:32;;;;;;;2.42;0.93;;;8.90;99.90;;;;;;5045020;28;20029;-74
2022/05/28 02:52:03;;;;;;;8.85;1.48;;;8.90;99.90;;;;;;5026884;28;20025;-76
2022/05/28 02:54:29;;;;;;;5.60;1.13;;;8.90;99.90;;;;;;5044737;28;20044;-78
2022/05/28 02:56:55;;;;;;;7.05;1.75;;;8.90;99.90;;;;;;5044481;28;20025;-80
2022/05/28 02:59:20;;;;;;;4.60;1.27;;;8.80;99.90;;;;;;5026823;28;20026;-78
2022/05/28 03:01:51;;;;;;;15.10;1.90;;;8.80;99.90;;;;;;5026755;28;20022;-77
2022/05/28 03:04:17;;;;;;;2.33;1.55;;;8.80;99.90;;;;;;5044321;28;20014;-78
2022/05/28 03:06:44;;;;;;;4.30;1.98;;;8.80;99.90;;;;;;5026828;28;20081;-77
2022/05/28 03:09:10;;;;;;;4.10;1.65;;;8.80;99.90;;;;;;5044199;28;20057;-74
2022/05/28 03:11:38;;;;;;;5.47;1.25;;;8.70;99.90;;;;;;5044098;28;20041;-75
2022/05/28 03:14:04;;;;;;;5.40;1.83;;;8.70;99.90;;;;;;5044179;28;20375;-75
2022/05/28 03:16:31;;;;;;;6.03;1.95;;;8.70;99.90;;;;;;5044307;28;20392;-74
2022/05/28 03:18:56;;;;;;;8.88;1.55;;;8.70;99.90;;;;;;5044308;28;20053;-74
2022/05/28 03:21:22;;;;;;;6.68;1.88;;;8.80;99.90;;;;;;5043633;28;20028;-74
2022/05/28 03:23:48;;;;;;;4.38;1.80;;;8.70;99.90;;;;;;5044400;28;20017;-76
2022/05/28 03:26:17;;;;;;;2.20;1.33;;;8.80;99.90;;;;;;5044467;28;20034;-78
2022/05/28 03:28:44;;;;;;;3.90;1.45;;;8.80;99.90;;;;;;5044167;28;20094;-79
2022/05/28 03:31:10;;;;;;;4.25;1.63;;;8.80;99.90;;;;;;5025961;28;20410;-75
2022/05/28 03:33:37;;;;;;;16.23;1.85;;;8.80;99.90;;;;;;5044523;28;20045;-77
2022/05/28 03:36:03;;;;;;;7.07;1.75;;;8.80;99.90;;;;;;5045143;28;20073;-76
2022/05/28 03:38:29;;;;;;;8.00;1.88;;;8.70;99.90;;;;;;5043582;28;20057;-75
2022/05/28 03:40:54;;;;;;;10.68;2.10;;;8.70;99.90;;;;;;5025961;28;20028;-76
2022/05/28 03:43:20;;;;;;;10.63;1.88;;;8.70;99.90;;;;;;5026068;28;20037;-77
2022/05/28 03:45:45;;;;;;;5.40;1.65;;;8.70;99.90;;;;;;5043743;28;20022;-74
2022/05/28 03:48:12;;;;;;;8.80;1.40;;;8.70;99.90;;;;;;5026147;28;20028;-73
2022/05/28 03:50:39;;;;;;;4.70;1.45;;;8.60;99.90;;;;;;5026074;28;20028;-75
2022/05/28 03:53:04;;;;;;;1.80;1.00;;;8.60;99.90;;;;;;5043416;28;20013;-77
2022/05/28 03:55:30;;;;;;;8.65;1.33;;;8.60;99.90;;;;;;5025754;28;20042;-78
2022/05/28 03:57:56;;;;;;;7.10;2.15;;;8.60;99.90;;;;;;5025650;28;20032;-74
2022/05/28 04:00:22;;;;;;;2.92;1.42;;;8.60;99.90;;;;;;5043797;28;20066;-77
2022/05/28 04:02:47;;;;;;;1.90;1.20;;;8.60;99.90;;;;;;5043357;28;20401;-72
2022/05/28 04:05:13;;;;;;;3.15;1.25;;;8.60;99.90;;;;;;5043028;28;20041;-79
2022/05/28 04:07:40;;;;;;;7.35;1.83;;;8.60;99.90;;;;;;5043426;28;20033;-76
2022/05/28 04:10:08;;;;;;;2.72;1.15;;;8.70;99.90;;;;;;5043314;28;20025;-80
2022/05/28 04:12:33;;;;;;;2.22;1.30;;;8.70;99.90;;;;;;5043453;28;20061;-80
2022/05/28 04:14:59;;;;;;;13.13;1.60;;;8.70;99.90;;;;;;5026005;28;20041;-81
2022/05/28 04:17:25;;;;;;;4.38;1.48;;;8.80;99.90;;;;;;5024328;28;21118;-77
2022/05/28 04:19:51;;;;;;;7.30;1.70;;;8.80;99.90;;;;;;5025305;28;20036;-77
2022/05/28 04:22:16;;;;;;;9.30;1.67;;;8.80;99.90;;;;;;5042501;28;20446;-77
2022/05/28 04:24:43;;;;;;;6.28;1.48;;;8.90;99.90;;;;;;5024767;28;20474;-77
2022/05/28 04:27:08;;;;;;;3.85;1.67;;;8.90;99.90;;;;;;5023295;28;20055;-76
2022/05/28 04:29:36;;;;;;;13.45;1.48;;;8.90;99.90;;;;;;5041270;28;20089;-75
2022/05/28 04:32:05;;;;;;;5.68;2.30;;;8.90;99.90;;;;;;5042604;28;20043;-78
2022/05/28 04:34:35;;;;;;;6.88;1.85;;;9.00;99.90;;;;;;5022714;28;20041;-77
2022/05/28 04:37:01;;;;;;;3.88;1.73;;;9.00;99.90;;;;;;5042127;28;20037;-75
2022/05/28 04:39:26;;;;;;;7.45;1.70;;;9.10;99.90;;;;;;5041455;28;20509;-73
2022/05/28 04:41:52;;;;;;;8.18;1.42;;;9.10;99.90;;;;;;5041351;28;20223;-75
2022/05/28 04:44:25;;;;;;;7.47;2.42;;;9.10;99.90;;;;;;5040941;28;20501;-74
2022/05/28 04:46:50;;;;;;;12.60;2.20;;;9.10;99.90;;;;;;5042487;28;20035;-72
2022/05/28 04:49:17;;;;;;;4.65;1.75;;;9.20;99.90;;;;;;5036618;28;20108;-75
2022/05/28 04:51:42;;;;;;;4.97;1.58;;;9.20;99.90;;;;;;5039725;28;20039;-73
2022/05/28 04:54:08;;;;;;;2.70;1.08;;;9.20;99.90;;;;;;5042826;28;20037;-73
2022/05/28 04:56:36;;;;;;;2.72;1.50;;;9.10;99.90;;;;;;5023595;28;20037;-72
2022/05/28 04:59:02;;;;;;;7.70;1.38;;;9.20;99.90;;;;;;5037866;28;20022;-72
2022/05/28 05:01:28;;;;;;;10.05;1.63;;;9.20;99.90;;;;;;5024261;28;20057;-75
2022/05/28 05:03:54;;;;;;;5.35;1.67;;;9.20;99.90;;;;;;5042358;28;20024;-75
2022/05/28 05:06:20;;;;;;;9.63;1.92;;;9.30;99.90;;;;;;5042317;28;20657;-72
2022/05/28 05:08:46;;;;;;;3.65;1.33;;;9.30;99.90;;;;;;5023796;28;20013;-74
2022/05/28 05:11:13;;;;;;;3.80;1.10;;;9.20;99.90;;;;;;5041453;28;20081;-75
2022/05/28 05:13:39;;;;;;;4.47;1.00;;;9.20;99.90;;;;;;5041523;28;20053;-77
2022/05/28 05:16:10;;;;;;;5.80;1.30;;;9.20;99.90;;;;;;5024602;28;20028;-75
2022/05/28 05:18:36;;;;;;;6.25;0.93;;;9.20;99.90;;;;;;5041270;28;20097;-77
2022/05/28 05:21:01;;;;;;;5.88;1.52;;;9.20;99.90;;;;;;5041171;28;20057;-76
2022/05/28 05:23:27;;;;;;;3.70;1.08;;;9.20;99.90;;;;;;5041750;28;20033;-74
2022/05/28 05:25:53;;;;;;;5.00;1.73;;;9.20;99.90;;;;;;5041794;28;20021;-76
2022/05/28 05:28:18;;;;;;;4.35;1.35;;;9.20;99.90;;;;;;5041958;28;20064;-73
2022/05/28 05:30:44;;;;;;;2.83;1.50;;;9.30;99.90;;;;;;5040698;28;20067;-73
2022/05/28 05:33:10;;;;;;;2.83;1.17;;;9.30;99.90;;;;;;5035924;28;20026;-75
2022/05/28 05:35:36;;;;;;;5.22;1.73;;;9.30;99.90;;;;;;5021612;28;20037;-74
2022/05/28 05:38:05;;;;;;;4.55;1.67;;;9.40;99.90;;;;;;5043542;28;20036;-75
2022/05/28 05:40:38;;;;;;;5.85;1.58;;;9.40;99.90;;;;;;5046955;28;20031;-75
2022/05/28 05:43:06;;;;;;;10.35;1.90;;;9.50;99.90;;;;;;5045782;28;20025;-76
2022/05/28 05:45:31;;;;;;;6.45;2.05;;;9.60;99.90;;;;;;5046625;28;20040;-76
2022/05/28 05:47:57;;;;;;;14.65;1.83;;;9.70;99.90;;;;;;5028510;28;20026;-74
2022/05/28 05:50:23;;;;;;;12.32;2.30;;;9.90;99.90;;;;;;5045769;28;20441;-76
2022/05/28 05:52:49;;;;;;;5.55;1.92;;;9.80;99.90;;;;;;5029647;28;20026;-72
2022/05/28 05:55:14;;;;;;;2.90;1.63;;;9.90;99.90;;;;;;5048174;28;20041;-77
2022/05/28 05:57:40;;;;;;;5.03;1.55;;;10.00;99.90;;;;;;5048350;28;20025;-75
2022/05/28 06:00:07;;;;;;;14.27;2.42;;;10.00;99.90;;;;;;5030317;28;20466;-72
2022/05/28 06:02:33;;;;;;;4.53;1.23;;;10.10;99.90;;;;;;5047338;28;20047;-73
2022/05/28 06:04:59;;;;;;;9.45;2.15;;;10.10;99.90;;;;;;5048317;28;20053;-77
2022/05/28 06:07:25;;;;;;;9.65;1.63;;;10.10;99.90;;;;;;5046793;28;20872;-73
2022/05/28 06:09:51;;;;;;;7.50;1.75;;;10.10;99.90;;;;;;5047457;28;20112;-75
2022/05/28 06:12:16;;;;;;;5.80;1.85;;;10.20;99.90;;;;;;5047316;28;20076;-76
2022/05/28 06:14:42;;;;;;;4.70;1.50;;;10.20;99.90;;;;;;5048287;28;20482;-76
2022/05/28 06:17:08;;;;;;;7.88;2.30;;;10.20;99.90;;;;;;5047872;28;20037;-78
2022/05/28 06:19:34;;;;;;;5.85;1.95;;;10.40;99.90;;;;;;5047773;28;20045;-76
2022/05/28 06:22:01;;;;;;;6.10;2.08;;;10.40;99.90;;;;;;5046655;28;20049;-74
2022/05/28 06:24:27;;;;;;;20.25;2.90;;;10.40;99.90;;;;;;5048369;28;20097;-71
2022/05/28 06:26:53;;;;;;;5.63;1.95;;;10.40;99.90;;;;;;5046227;28;20025;-73
2022/05/28 06:29:19;;;;;;;2.97;1.40;;;10.40;99.90;;;;;;5046479;28;20381;-76
2022/05/28 06:31:44;;;;;;;2.80;1.65;;;10.50;99.90;;;;;;5043674;28;20025;-71
2022/05/28 06:34:10;;;;;;;10.55;1.77;;;10.50;99.90;;;;;;5048216;28;20048;-78
2022/05/28 06:36:36;;;;;;;5.47;1.42;;;10.70;99.90;;;;;;5028605;28;20029;-71
2022/05/28 06:39:02;;;;;;;6.53;2.08;;;10.80;99.90;;;;;;5029607;28;20096;-70
2022/05/28 06:41:27;;;;;;;7.15;2.35;;;10.90;99.90;;;;;;5047621;28;20025;-76
2022/05/28 06:43:53;;;;;;;9.05;1.98;;;11.00;99.90;;;;;;5047482;28;20153;-73
2022/05/28 06:46:19;;;;;;;17.70;2.92;;;11.00;99.90;;;;;;5029836;28;20026;-72
2022/05/28 06:48:44;;;;;;;7.45;1.85;;;11.00;99.90;;;;;;5043369;28;20033;-73
2022/05/28 06:51:11;;;;;;;3.65;1.60;;;11.10;99.90;;;;;;5024567;28;20060;-74
2022/05/28 06:53:41;;;;;;;8.15;2.72;;;11.10;99.90;;;;;;5042084;28;20045;-74
2022/05/28 06:56:09;;;;;;;15.52;2.78;;;11.20;99.90;;;;;;5043250;28;20028;-74
2022/05/28 06:58:36;;;;;;;14.00;1.85;;;11.20;99.90;;;;;;5024836;28;20029;-70
2022/05/28 07:01:03;;;;;;;11.77;2.35;;;11.20;99.90;;;;;;5044396;28;20041;-74
2022/05/28 07:03:30;;;;;;;12.20;2.90;;;11.20;99.90;;;;;;5044038;28;20115;-72
2022/05/28 07:05:56;;;;;;;8.55;2.58;;;11.20;99.90;;;;;;5043568;28;20021;-72
2022/05/28 07:08:22;;;;;;;19.58;3.33;;;11.20;99.90;;;;;;5044461;28;20021;-76
2022/05/28 07:10:50;;;;;;;8.93;1.40;;;11.20;99.90;;;;;;5042317;28;20116;-71
2022/05/28 07:13:17;;;;;;;6.30;2.22;;;11.30;99.90;;;;;;5025516;28;20041;-76
2022/05/28 07:15:43;;;;;;;16.42;2.10;;;11.40;99.90;;;;;;5044529;28;20041;-74
2022/05/28 07:18:09;;;;;;;11.77;2.78;;;11.50;99.90;;;;;;5043092;28;20032;-74
2022/05/28 07:20:36;;;;;;;4.75;1.75;;;11.60;99.90;;;;;;5043586;28;20480;-72
2022/05/28 07:23:17;;;;;;;3.42;1.85;;;11.60;99.90;;;;;;5043141;28;20072;-76
2022/05/28 07:25:44;;;;;;;14.82;1.67;;;11.50;99.90;;;;;;5041832;28;20057;-76
2022/05/28 07:28:27;;;;;;;4.03;1.67;;;11.30;99.90;;;;;;5043883;28;20018;-76
2022/05/28 07:30:54;;;;;;;15.07;2.22;;;11.00;99.90;;;;;;5044364;28;20029;-72
2022/05/28 07:33:20;;;;;;;6.70;1.75;;;10.90;99.90;;;;;;5042419;28;20072;-76
2022/05/28 07:35:46;;;;;;;4.10;1.67;;;10.80;99.90;;;;;;5042195;28;20029;-72
2022/05/28 07:38:13;;;;;;;8.40;2.10;;;10.90;99.90;;;;;;5025280;28;20080;-72
2022/05/28 07:40:39;;;;;;;6.32;2.22;;;10.80;99.90;;;;;;5043927;28;20040;-74
2022/05/28 07:43:08;;;;;;;10.35;2.78;;;10.90;99.90;;;;;;5044126;28;20078;-75
2022/05/28 07:45:41;;;;;;;11.02;2.85;;;10.80;99.90;;;;;;5043782;28;20033;-72
2022/05/28 07:48:07;;;;;;;5.80;2.50;;;11.00;99.90;;;;;;5044007;28;20036;-75
2022/05/28 07:50:33;;;;;;;11.43;2.70;;;11.20;99.90;;;;;;5042642;28;20031;-73
2022/05/28 07:52:59;;;;;;;8.60;3.30;;;11.40;99.90;;;;;;5043020;28;20402;-72
2022/05/28 07:55:26;;;;;;;19.95;3.00;;;11.50;99.90;;;;;;5024321;28;20033;-74
2022/05/28 07:57:51;;;;;;;3.95;2.40;;;11.60;99.90;;;;;;5024069;28;20048;-74
2022/05/28 08:00:17;;;;;;;15.02;3.67;;;11.80;99.90;;;;;;5042587;28;20033;-73
2022/05/28 08:02:43;;;;;;;20.33;3.03;;;11.80;99.90;;;;;;5043232;28;20434;-73
2022/05/28 08:05:09;;;;;;;10.35;2.03;;;11.70;99.90;;;;;;5024816;28;20033;-76
2022/05/28 08:07:36;;;;;;;12.90;2.33;;;11.60;99.90;;;;;;5025326;28;20531;-76
2022/05/28 08:10:03;;;;;;;7.63;2.60;;;11.70;99.90;;;;;;5043471;28;20057;-75
2022/05/28 08:12:29;;;;;;;11.07;2.58;;;11.80;99.90;;;;;;5025499;28;20057;-73
2022/05/28 08:14:55;;;;;;;5.18;2.08;;;11.80;99.90;;;;;;5025749;28;20037;-73
2022/05/28 08:17:21;;;;;;;24.02;3.63;;;11.90;99.90;;;;;;5043449;28;20018;-75
2022/05/28 08:19:59;;;;;;;20.02;2.65;;;12.10;99.90;;;;;;5043233;28;20059;-73
2022/05/28 08:25:09;;;;;;;6.65;2.35;;;12.30;99.90;;;;;;5040825;28;20060;-73
2022/05/28 08:27:37;;;;;;;12.68;1.60;;;12.50;99.90;;;;;;5041518;28;20037;-72
2022/05/28 08:30:07;;;;;;;4.68;1.27;;;12.60;99.90;;;;;;5022914;28;20033;-73
2022/05/28 08:32:33;;;;;;;8.73;2.05;;;12.60;99.90;;;;;;5041933;28;20432;-71
2022/05/28 08:34:59;;;;;;;11.30;2.13;;;12.40;99.90;;;;;;5022636;28;20527;-71
2022/05/28 08:37:25;;;;;;;10.32;1.83;;;12.30;99.90;;;;;;5041096;28;20079;-77
2022/05/28 08:39:50;;;;;;;12.52;2.33;;;12.20;99.90;;;;;;5025120;28;20025;-73
2022/05/28 08:42:21;;;;;;;7.45;1.52;;;12.10;99.90;;;;;;5042154;28;20034;-71
2022/05/28 08:44:49;;;;;;;6.05;1.88;;;11.90;99.90;;;;;;5042807;28;20021;-77
2022/05/28 08:47:29;;;;;;;4.40;1.70;;;11.90;99.90;;;;;;5042732;28;20025;-70
2022/05/28 08:49:55;;;;;;;3.05;1.48;;;11.90;99.90;;;;;;5042322;28;20021;-70
2022/05/28 08:52:38;;;;;;;8.27;2.72;;;11.90;99.90;;;;;;5042775;28;20048;-72
2022/05/28 08:55:13;;;;;;;8.50;2.22;;;12.10;99.90;;;;;;5042705;28;20025;-70
2022/05/28 08:58:08;;;;;;;3.10;1.35;;;12.20;99.90;;;;;;5041908;28;20120;-71
2022/05/28 09:00:42;;;;;;;10.88;2.30;;;12.50;99.90;;;;;;5022999;28;20093;-71
2022/05/28 09:03:12;;;;;;;11.00;2.03;;;12.70;99.90;;;;;;5042073;28;20024;-72
2022/05/28 09:06:20;;;;;;;10.48;1.80;;;12.90;99.90;;;;;;5042383;28;20048;-72
2022/05/28 09:08:51;;;;;;;3.78;1.30;;;13.00;99.90;;;;;;5038503;28;20037;-74
2022/05/28 09:11:32;;;;;;;4.18;1.30;;;12.90;99.90;;;;;;5020161;28;20033;-73
2022/05/28 09:14:08;;;;;;;3.15;1.52;;;12.90;99.90;;;;;;5001188;28;20459;-75
2022/05/28 09:16:38;;;;;;;3.35;0.98;;;13.00;99.90;;;;;;5001850;28;20437;-71
2022/05/28 09:19:08;;;;;;;2.28;1.33;;;13.10;99.90;;;;;;4999457;28;20030;-75
2022/05/28 09:21:35;;;;;;;2.42;1.02;;;13.00;99.90;;;;;;5000956;28;20065;-71
2022/05/28 09:24:12;;;;;;;5.70;1.52;;;13.00;99.90;;;;;;5001533;28;20026;-75
2022/05/28 09:27:15;;;;;;;8.52;1.23;;;13.10;99.90;;;;;;5002316;28;20022;-74
2022/05/28 09:30:02;;;;;;;1.60;0.90;;;13.20;99.90;;;;;;5002488;28;20030;-75
2022/05/28 09:32:58;;;;;;;5.78;1.67;;;13.30;99.90;;;;;;5000359;28;20034;-73
2022/05/28 09:35:57;;;;;;;4.28;1.10;;;13.30;99.90;;;;;;5000957;28;20053;-72
2022/05/28 09:38:55;;;;;;;13.07;1.75;;;13.30;99.90;;;;;;5000029;28;20034;-73
2022/05/28 09:41:42;;;;;;;5.70;1.45;;;13.30;99.90;;;;;;4996238;28;20041;-74
2022/05/28 09:44:23;;;;;;;22.08;1.35;;;13.40;99.90;;;;;;5002473;28;20034;-71
2022/05/28 09:46:49;;;;;;;2.75;1.20;;;13.60;99.90;;;;;;5002075;28;20026;-74
2022/05/28 09:49:23;;;;;;;11.68;1.73;;;13.70;99.90;;;;;;5002484;28;20027;-73
2022/05/28 09:52:10;;;;;;;4.07;1.38;;;13.60;99.90;;;;;;5002105;28;20061;-75
2022/05/28 09:54:37;;;;;;;10.23;1.80;;;13.50;99.90;;;;;;5001635;28;20032;-71
2022/05/28 09:57:10;;;;;;;3.63;1.80;;;13.50;99.90;;;;;;5000862;28;20027;-71
2022/05/28 09:59:49;;;;;;;10.68;1.20;;;13.70;99.90;;;;;;5002249;28;20022;-76
2022/05/28 10:02:14;;;;;;;12.35;2.05;;;13.80;99.90;;;;;;4998729;28;20026;-73
2022/05/28 10:05:06;;;;;;;6.18;1.98;;;13.40;99.90;;;;;;5002051;28;20466;-74
2022/05/28 10:07:45;;;;;;;3.53;1.20;;;12.80;99.90;;;;;;5002172;28;20038;-75
2022/05/28 10:10:20;;;;;;;7.22;1.23;;;12.20;99.90;;;;;;5002167;28;20037;-74
2022/05/28 10:12:46;;;;;;;2.97;1.27;;;11.80;99.90;;;;;;5024667;28;20052;-76
2022/05/28 10:15:28;;;;;;;2.88;1.00;;;11.40;99.90;;;;;;5041889;28;20120;-76
2022/05/28 10:18:09;;;;;;;15.82;1.77;;;11.30;99.90;;;;;;5023927;28;20029;-79
2022/05/28 10:20:34;;;;;;;4.32;1.48;;;11.20;99.90;;;;;;5041862;28;20477;-75
2022/05/28 10:23:07;;;;;;;4.00;1.10;;;11.20;99.90;;;;;;5040857;28;20086;-76
2022/05/28 10:25:48;;;;;;;5.53;1.65;;;11.30;99.90;;;;;;5027486;28;20033;-74
2022/05/28 10:28:29;;;;;;;2.33;1.05;;;11.50;99.90;;;;;;5045322;28;20037;-74
2022/05/28 10:30:56;;;;;;;1.70;0.93;;;11.90;99.90;;;;;;5044580;28;20025;-72
2022/05/28 10:33:25;;;;;;;2.55;0.85;;;12.10;99.90;;;;;;5043911;28;20025;-73
2022/05/28 10:35:51;;;;;;;6.00;1.60;;;12.30;99.90;;;;;;5044280;28;20128;-70
2022/05/28 10:38:24;;;;;;;2.72;1.25;;;12.60;99.90;;;;;;5044057;28;20071;-76
2022/05/28 10:41:02;;;;;;;6.60;2.00;;;12.90;99.90;;;;;;5043242;28;20059;-73
2022/05/28 10:43:39;;;;;;;3.85;1.77;;;13.20;99.90;;;;;;5043136;28;20039;-73
2022/05/28 10:46:13;;;;;;;8.00;2.70;;;13.40;99.90;;;;;;5044950;28;20553;-73
2022/05/28 10:49:00;;;;;;;16.17;1.77;;;13.60;99.90;;;;;;5044776;28;20067;-75
2022/05/28 10:51:44;;;;;;;9.07;1.90;;;13.70;99.90;;;;;;5044592;28;20021;-73
2022/05/28 10:54:14;;;;;;;10.52;2.17;;;13.70;99.90;;;;;;5043939;28;20029;-76
2022/05/28 10:56:47;;;;;;;5.15;1.80;;;14.00;99.90;;;;;;5044225;28;20085;-73
2022/05/28 10:59:34;;;;;;;4.38;1.60;;;14.00;99.90;;;;;;5045107;28;20076;-74
2022/05/28 11:02:31;;;;;;;5.43;1.80;;;13.70;99.90;;;;;;5044562;28;20026;-76
2022/05/28 11:05:08;;;;;;;12.10;1.95;;;13.60;99.90;;;;;;5044553;28;20037;-74
2022/05/28 11:07:52;;;;;;;5.65;1.35;;;13.60;99.90;;;;;;5043388;28;20027;-73
2022/05/28 11:10:32;;;;;;;7.72;2.22;;;13.70;99.90;;;;;;5044229;28;20045;-74
2022/05/28 11:13:23;;;;;;;3.75;2.13;;;13.90;99.90;;;;;;5026419;28;20379;-74
2022/05/28 11:16:30;;;;;;;10.10;1.60;;;13.80;99.90;;;;;;5025801;28;20421;-71
2022/05/28 11:19:18;;;;;;;2.42;0.90;;;14.00;99.90;;;;;;5042508;28;20037;-75
2022/05/28 11:22:04;;;;;;;7.15;1.00;;;13.80;99.90;;;;;;5044069;28;20028;-75
2022/05/28 11:24:53;;;;;;;6.90;1.63;;;13.70;99.90;;;;;;5043386;28;20041;-74
2022/05/28 11:27:52;;;;;;;9.43;1.80;;;13.70;99.90;;;;;;5025441;28;20085;-73
2022/05/28 11:30:31;;;;;;;9.25;2.03;;;13.80;99.90;;;;;;5026165;28;20079;-73
2022/05/28 11:33:19;;;;;;;5.75;1.15;;;14.10;99.90;;;;;;5026434;28;20033;-71
2022/05/28 11:36:06;;;;;;;7.20;1.95;;;14.20;99.90;;;;;;5043277;28;20025;-71
2022/05/28 11:38:38;;;;;;;8.77;1.20;;;14.10;99.90;;;;;;5026565;28;20034;-76
2022/05/28 11:41:18;;;;;;;4.68;1.80;;;14.00;99.90;;;;;;5042831;28;20025;-72
2022/05/28 11:44:00;;;;;;;6.82;0.93;;;14.00;99.90;;;;;;5026101;28;20082;-74
2022/05/28 11:46:46;;;;;;;1.33;0.82;;;14.10;99.90;;;;;;5043875;28;20036;-74
2022/05/28 11:52:32;;;;;;;6.22;1.77;;;14.80;99.90;;;;;;5042798;28;20160;-77
2022/05/28 11:55:24;;;;;;;19.17;1.80;;;15.00;99.90;;;;;;5042617;28;20517;-74
2022/05/28 11:58:05;;;;;;;9.30;1.35;;;15.40;99.90;;;;;;5025470;28;20508;-76
2022/05/28 12:00:34;;;;;;;2.70;1.20;;;15.60;99.90;;;;;;5025914;28;20037;-72
2022/05/28 12:03:14;;;;;;;1.48;0.98;;;15.70;99.90;;;;;;5043184;28;20018;-72
2022/05/28 12:05:54;;;;;;;6.00;1.52;;;15.70;99.90;;;;;;5043371;28;20056;-70
2022/05/28 12:08:26;;;;;;;5.00;1.02;;;15.40;99.90;;;;;;5025712;28;20093;-76
2022/05/28 12:10:59;;;;;;;0.98;0.68;;;15.00;99.90;;;;;;5043468;28;20032;-74
2022/05/28 12:13:35;;;;;;;3.97;0.88;;;14.70;99.90;;;;;;5043114;28;20081;-71
2022/05/28 12:16:12;;;;;;;8.07;0.88;;;14.90;99.90;;;;;;5043822;28;20723;-75
2022/05/28 12:18:42;;;;;;;11.25;1.17;;;15.30;99.90;;;;;;5042019;28;20448;-74
2022/05/28 12:21:08;;;;;;;1.65;0.70;;;15.30;99.90;;;;;;5042149;28;20028;-74
2022/05/28 12:23:40;;;;;;;2.90;0.77;;;15.20;99.90;;;;;;5041944;28;20028;-75
2022/05/28 12:26:29;;;;;;;10.57;1.33;;;15.00;99.90;;;;;;5042679;28;20033;-75
2022/05/28 12:28:57;;;;;;;4.93;1.27;;;15.00;99.90;;;;;;5042029;28;20033;-73
2022/05/28 12:31:27;;;;;;;3.03;0.90;;;14.80;99.90;;;;;;5041819;28;20026;-72
2022/05/28 12:33:56;;;;;;;3.83;0.85;;;14.90;99.90;;;;;;5041606;28;20033;-72
2022/05/28 12:36:45;;;;;;;12.15;1.40;;;15.10;99.90;;;;;;5042505;28;20079;-77
2022/05/28 12:39:13;;;;;;;8.50;1.67;;;15.00;99.90;;;;;;5041266;28;20021;-73
2022/05/28 12:41:40;;;;;;;4.72;1.23;;;14.90;99.90;;;;;;5024128;28;20665;-74
2022/05/28 12:44:16;;;;;;;3.97;1.38;;;14.90;99.90;;;;;;5041054;28;20101;-77
2022/05/28 12:46:54;;;;;;;2.10;0.98;;;14.80;99.90;;;;;;5024152;28;20029;-73
2022/05/28 12:49:47;;;;;;;4.32;0.77;;;15.20;99.90;;;;;;5042709;28;20037;-72
2022/05/28 12:52:38;;;;;;;4.45;1.45;;;15.60;99.90;;;;;;5024910;28;20037;-73
2022/05/28 12:55:24;;;;;;;7.03;1.58;;;15.50;99.90;;;;;;5042534;28;20508;-73
2022/05/28 12:57:59;;;;;;;2.80;1.35;;;15.10;99.90;;;;;;5027246;28;20068;-72
2022/05/28 13:00:28;;;;;;;3.28;1.25;;;14.70;99.90;;;;;;5024214;28;20029;-72
2022/05/28 13:02:55;;;;;;;6.82;1.88;;;14.40;99.90;;;;;;5041933;28;20485;-72
2022/05/28 13:05:41;;;;;;;6.35;1.63;;;14.40;99.90;;;;;;5040665;28;20033;-71
2022/05/28 13:08:25;;;;;;;10.27;1.38;;;14.70;99.90;;;;;;5042779;28;20029;-71
2022/05/28 13:10:55;;;;;;;2.27;0.90;;;15.60;99.90;;;;;;5041869;28;20029;-72
2022/05/28 13:14:02;;;;;;;4.68;0.95;;;16.20;99.90;;;;;;5038616;28;20057;-72
2022/05/28 13:16:51;;;;;;;3.58;0.75;;;16.40;99.90;;;;;;5040690;28;20485;-70
2022/05/28 13:19:29;;;;;;;9.05;1.40;;;16.20;99.90;;;;;;5041736;28;20085;-72
2022/05/28 13:22:04;;;;;;;7.03;1.25;;;16.00;99.90;;;;;;5040987;28;20087;-70
2022/05/28 13:25:07;;;;;;;7.47;1.95;;;15.80;99.90;;;;;;5041966;28;20021;-74